KCGF METAR and TAF | Updated Today

KCGF METAR

Cuyahoga County Airport

Observation time: 6 min. ago

KCGF 061845Z 01003KT 10SM OVC013 00/M03 A3026

Need help? Read our tutorial on how to read METARs or read the parsed version below.

Cuyahoga County Airport (KCGF) METAR

  • Weather conditions on Mon, 06 Feb 2023 18:45:00 +0000 (6 min. ago):
  • Present conditions: Dry
  • Clouds: Overcast sky at 396 meters
  • Visibility: 16093 meters
  • Wind: 10 degrees at 3 knots
  • Temperature: 0 celsius
  • Dew point: -3 celsius
  • Pressure: 30.26 inHg
  • Remarks: None


Useful to know...